EPRZ/RZE METAR and TAF weather

Enter ICAO airport designator
Station Type Date Time Source
EPRZ METAR 2018/01/23 01:30 UTC NOAA

EPRZ 230130Z 08013KT 9999 SCT009 OVC024 M04/M06 Q1018 R27/52//95


Station Type Date Time Source
EPRZ Decoded METAR 2018/01/23 01:30 UTC NOAA

Rzeszow-Jasionka, Poland (EPRZ) 50-06N 022-03E 202M
Jan 22, 2018 - 08:30 PM EST / 2018.01.23 0130 UTC
Wind: from the E (080 degrees) at 15 MPH (13 KT):0
Visibility: greater than 7 mile(s):0
Sky conditions: overcast
Temperature: 24 F (-4 C)
Windchill: 12 F (-11 C):1
Dew Point: 21 F (-6 C)
Relative Humidity: 85%
Pressure (altimeter): 30.06 in. Hg (1018 hPa)
ob: EPRZ 230130Z 08013KT 9999 SCT009 OVC024 M04/M06 Q1018 R27/52//95
cycle: 1

Station Type Date Time Source
EPRZ TAF 2018/01/22 18:33 UTC NOAA

TAF EPRZ 221730Z 2218/2318 09008KT 7000 BKN020
TEMPO 2218/2312 4000 BR BKN010 PROB30
TEMPO 2218/2307 1200 BR BKN004


Example: see airport list